sensor_id;sensor_type;location;lat;lon;timestamp;temperature;humidity
68912;SHT31;55953;51.650;-0.522;2022-08-05T00:01:31;16.18;53.43
68912;SHT31;55953;51.650;-0.522;2022-08-05T00:04:17;16.11;53.46
68912;SHT31;55953;51.650;-0.522;2022-08-05T00:06:45;16.05;53.85
68912;SHT31;55953;51.650;-0.522;2022-08-05T00:09:18;16.00;53.88
68912;SHT31;55953;51.650;-0.522;2022-08-05T00:11:47;15.97;53.98
68912;SHT31;55953;51.650;-0.522;2022-08-05T00:14:25;15.96;54.12
68912;SHT31;55953;51.650;-0.522;2022-08-05T00:16:57;15.93;54.22
68912;SHT31;55953;51.650;-0.522;2022-08-05T00:19:28;15.88;54.42
68912;SHT31;55953;51.650;-0.522;2022-08-05T00:22:10;15.82;54.67
68912;SHT31;55953;51.650;-0.522;2022-08-05T00:24:38;15.78;54.91
68912;SHT31;55953;51.650;-0.522;2022-08-05T00:27:09;15.78;55.09
68912;SHT31;55953;51.650;-0.522;2022-08-05T00:29:57;15.76;55.29
68912;SHT31;55953;51.650;-0.522;2022-08-05T00:32:26;15.76;55.47
68912;SHT31;55953;51.650;-0.522;2022-08-05T00:34:54;15.77;55.61
68912;SHT31;55953;51.650;-0.522;2022-08-05T00:37:33;15.76;55.78
68912;SHT31;55953;51.650;-0.522;2022-08-05T00:40:20;15.77;55.76
68912;SHT31;55953;51.650;-0.522;2022-08-05T00:42:56;15.74;55.87
68912;SHT31;55953;51.650;-0.522;2022-08-05T00:45:25;15.70;56.17
68912;SHT31;55953;51.650;-0.522;2022-08-05T00:48:11;15.73;56.30
68912;SHT31;55953;51.650;-0.522;2022-08-05T00:50:42;15.71;56.19
68912;SHT31;55953;51.650;-0.522;2022-08-05T00:53:13;15.69;56.25
68912;SHT31;55953;51.650;-0.522;2022-08-05T00:56:03;15.67;56.31
68912;SHT31;55953;51.650;-0.522;2022-08-05T00:58:34;15.65;56.40
68912;SHT31;55953;51.650;-0.522;2022-08-05T01:01:03;15.61;56.61
68912;SHT31;55953;51.650;-0.522;2022-08-05T01:03:36;15.59;56.88
68912;SHT31;55953;51.650;-0.522;2022-08-05T01:06:06;15.57;56.96
68912;SHT31;55953;51.650;-0.522;2022-08-05T01:08:41;15.56;57.05
68912;SHT31;55953;51.650;-0.522;2022-08-05T01:11:12;15.56;57.05
68912;SHT31;55953;51.650;-0.522;2022-08-05T01:14:13;15.54;57.27
68912;SHT31;55953;51.650;-0.522;2022-08-05T01:16:59;15.53;57.32
68912;SHT31;55953;51.650;-0.522;2022-08-05T01:29:00;15.50;57.72
68912;SHT31;55953;51.650;-0.522;2022-08-05T01:31:41;15.49;57.78
68912;SHT31;55953;51.650;-0.522;2022-08-05T01:34:18;15.50;57.70
68912;SHT31;55953;51.650;-0.522;2022-08-05T01:37:10;15.51;57.64
68912;SHT31;55953;51.650;-0.522;2022-08-05T01:39:51;15.50;57.89
68912;SHT31;55953;51.650;-0.522;2022-08-05T01:42:25;15.49;57.81
68912;SHT31;55953;51.650;-0.522;2022-08-05T01:44:58;15.48;57.84
68912;SHT31;55953;51.650;-0.522;2022-08-05T01:47:30;15.49;57.89
68912;SHT31;55953;51.650;-0.522;2022-08-05T01:50:07;15.49;57.88
68912;SHT31;55953;51.650;-0.522;2022-08-05T01:52:44;15.46;58.00
68912;SHT31;55953;51.650;-0.522;2022-08-05T01:55:17;15.44;57.99
68912;SHT31;55953;51.650;-0.522;2022-08-05T01:57:49;15.40;58.14
68912;SHT31;55953;51.650;-0.522;2022-08-05T02:00:44;15.37;58.19
68912;SHT31;55953;51.650;-0.522;2022-08-05T02:06:06;15.33;58.48
68912;SHT31;55953;51.650;-0.522;2022-08-05T02:08:54;15.30;58.62
68912;SHT31;55953;51.650;-0.522;2022-08-05T02:11:25;15.27;58.81
68912;SHT31;55953;51.650;-0.522;2022-08-05T02:14:16;15.26;58.83
68912;SHT31;55953;51.650;-0.522;2022-08-05T02:16:53;15.27;58.84
68912;SHT31;55953;51.650;-0.522;2022-08-05T02:25:16;15.22;58.66
68912;SHT31;55953;51.650;-0.522;2022-08-05T02:27:48;15.22;58.40
68912;SHT31;55953;51.650;-0.522;2022-08-05T02:30:27;15.20;58.37
68912;SHT31;55953;51.650;-0.522;2022-08-05T02:33:21;15.20;58.22
68912;SHT31;55953;51.650;-0.522;2022-08-05T02:36:05;15.19;57.99
68912;SHT31;55953;51.650;-0.522;2022-08-05T02:38:43;15.18;58.12
68912;SHT31;55953;51.650;-0.522;2022-08-05T02:41:21;15.15;57.99
68912;SHT31;55953;51.650;-0.522;2022-08-05T02:44:05;15.16;57.89
68912;SHT31;55953;51.650;-0.522;2022-08-05T02:46:40;15.19;57.77
68912;SHT31;55953;51.650;-0.522;2022-08-05T02:49:30;15.16;57.73
68912;SHT31;55953;51.650;-0.522;2022-08-05T02:52:08;15.15;57.72
68912;SHT31;55953;51.650;-0.522;2022-08-05T02:54:56;15.14;57.65
68912;SHT31;55953;51.650;-0.522;2022-08-05T02:57:32;15.13;57.69
68912;SHT31;55953;51.650;-0.522;2022-08-05T03:00:22;15.10;57.46
68912;SHT31;55953;51.650;-0.522;2022-08-05T03:02:53;15.06;57.54
68912;SHT31;55953;51.650;-0.522;2022-08-05T03:05:24;15.03;57.67
68912;SHT31;55953;51.650;-0.522;2022-08-05T03:08:13;15.00;57.76
68912;SHT31;55953;51.650;-0.522;2022-08-05T03:10:43;14.99;57.88
68912;SHT31;55953;51.650;-0.522;2022-08-05T03:13:31;14.95;58.05
68912;SHT31;55953;51.650;-0.522;2022-08-05T03:16:19;14.92;58.22
68912;SHT31;55953;51.650;-0.522;2022-08-05T03:18:49;14.92;58.38
68912;SHT31;55953;51.650;-0.522;2022-08-05T03:21:18;14.90;58.60
68912;SHT31;55953;51.650;-0.522;2022-08-05T03:23:48;14.87;58.71
68912;SHT31;55953;51.650;-0.522;2022-08-05T03:26:16;14.83;58.82
68912;SHT31;55953;51.650;-0.522;2022-08-05T03:28:58;14.83;59.07
68912;SHT31;55953;51.650;-0.522;2022-08-05T03:31:27;14.83;59.05
68912;SHT31;55953;51.650;-0.522;2022-08-05T03:34:16;14.79;59.20
68912;SHT31;55953;51.650;-0.522;2022-08-05T03:36:45;14.81;59.22
68912;SHT31;55953;51.650;-0.522;2022-08-05T03:39:13;14.82;59.24
68912;SHT31;55953;51.650;-0.522;2022-08-05T03:41:53;14.81;59.38
68912;SHT31;55953;51.650;-0.522;2022-08-05T03:44:23;14.79;59.50
68912;SHT31;55953;51.650;-0.522;2022-08-05T03:46:55;14.77;59.60
68912;SHT31;55953;51.650;-0.522;2022-08-05T03:49:23;14.76;59.61
68912;SHT31;55953;51.650;-0.522;2022-08-05T03:52:11;14.75;59.80
68912;SHT31;55953;51.650;-0.522;2022-08-05T03:55:09;14.73;59.91
68912;SHT31;55953;51.650;-0.522;2022-08-05T03:58:03;14.71;59.92
68912;SHT31;55953;51.650;-0.522;2022-08-05T04:00:38;14.74;59.91
68912;SHT31;55953;51.650;-0.522;2022-08-05T04:03:17;14.73;59.93
68912;SHT31;55953;51.650;-0.522;2022-08-05T04:05:55;14.72;60.32
68912;SHT31;55953;51.650;-0.522;2022-08-05T04:08:25;14.72;60.29
68912;SHT31;55953;51.650;-0.522;2022-08-05T04:11:03;14.68;60.57
68912;SHT31;55953;51.650;-0.522;2022-08-05T04:13:39;14.67;60.77
68912;SHT31;55953;51.650;-0.522;2022-08-05T04:16:19;14.69;60.90
68912;SHT31;55953;51.650;-0.522;2022-08-05T04:18:58;14.67;60.96
68912;SHT31;55953;51.650;-0.522;2022-08-05T04:21:26;14.69;60.98
68912;SHT31;55953;51.650;-0.522;2022-08-05T04:24:15;14.69;61.16
68912;SHT31;55953;51.650;-0.522;2022-08-05T04:26:49;14.66;61.24
68912;SHT31;55953;51.650;-0.522;2022-08-05T04:29:17;14.67;61.38
68912;SHT31;55953;51.650;-0.522;2022-08-05T04:31:46;14.66;61.54
68912;SHT31;55953;51.650;-0.522;2022-08-05T04:34:16;14.65;61.62
68912;SHT31;55953;51.650;-0.522;2022-08-05T04:37:01;14.61;61.89
68912;SHT31;55953;51.650;-0.522;2022-08-05T04:39:30;14.56;62.17
68912;SHT31;55953;51.650;-0.522;2022-08-05T04:42:01;14.52;62.51
68912;SHT31;55953;51.650;-0.522;2022-08-05T04:44:30;14.46;62.66
68912;SHT31;55953;51.650;-0.522;2022-08-05T04:46:58;14.40;62.97
68912;SHT31;55953;51.650;-0.522;2022-08-05T04:49:37;14.35;63.13
68912;SHT31;55953;51.650;-0.522;2022-08-05T04:52:26;14.28;63.62
68912;SHT31;55953;51.650;-0.522;2022-08-05T04:54:54;14.20;64.01
68912;SHT31;55953;51.650;-0.522;2022-08-05T04:57:24;14.15;64.20
68912;SHT31;55953;51.650;-0.522;2022-08-05T04:59:56;14.12;64.07
68912;SHT31;55953;51.650;-0.522;2022-08-05T05:02:25;14.13;64.22
68912;SHT31;55953;51.650;-0.522;2022-08-05T05:05:04;14.10;64.38
68912;SHT31;55953;51.650;-0.522;2022-08-05T05:07:53;14.03;65.09
68912;SHT31;55953;51.650;-0.522;2022-08-05T05:10:32;14.00;65.00
68912;SHT31;55953;51.650;-0.522;2022-08-05T05:13:22;13.94;65.29
68912;SHT31;55953;51.650;-0.522;2022-08-05T05:15:50;13.90;65.27
68912;SHT31;55953;51.650;-0.522;2022-08-05T05:18:32;13.90;65.36
68912;SHT31;55953;51.650;-0.522;2022-08-05T05:21:00;13.87;65.62
68912;SHT31;55953;51.650;-0.522;2022-08-05T05:23:30;13.87;65.62
68912;SHT31;55953;51.650;-0.522;2022-08-05T05:26:19;13.85;65.97
68912;SHT31;55953;51.650;-0.522;2022-08-05T05:28:59;13.80;66.07
68912;SHT31;55953;51.650;-0.522;2022-08-05T05:31:28;13.80;66.25
68912;SHT31;55953;51.650;-0.522;2022-08-05T05:33:57;13.75;66.51
68912;SHT31;55953;51.650;-0.522;2022-08-05T05:36:29;13.72;66.78
68912;SHT31;55953;51.650;-0.522;2022-08-05T05:38:58;13.73;66.73
68912;SHT31;55953;51.650;-0.522;2022-08-05T05:41:26;13.73;66.78
68912;SHT31;55953;51.650;-0.522;2022-08-05T05:44:08;13.73;67.07
68912;SHT31;55953;51.650;-0.522;2022-08-05T05:46:56;13.75;67.01
68912;SHT31;55953;51.650;-0.522;2022-08-05T05:49:30;13.77;67.06
68912;SHT31;55953;51.650;-0.522;2022-08-05T05:51:59;13.79;66.94
68912;SHT31;55953;51.650;-0.522;2022-08-05T05:54:32;13.83;67.30
68912;SHT31;55953;51.650;-0.522;2022-08-05T05:57:16;13.79;67.62
68912;SHT31;55953;51.650;-0.522;2022-08-05T05:59:45;13.79;67.50
68912;SHT31;55953;51.650;-0.522;2022-08-05T06:02:15;13.81;67.39
68912;SHT31;55953;51.650;-0.522;2022-08-05T06:04:59;13.87;67.37
68912;SHT31;55953;51.650;-0.522;2022-08-05T06:07:27;13.88;67.43
68912;SHT31;55953;51.650;-0.522;2022-08-05T06:10:09;13.89;67.70
68912;SHT31;55953;51.650;-0.522;2022-08-05T06:12:39;13.91;67.61
68912;SHT31;55953;51.650;-0.522;2022-08-05T06:15:08;13.90;67.57
68912;SHT31;55953;51.650;-0.522;2022-08-05T06:17:50;13.96;67.44
68912;SHT31;55953;51.650;-0.522;2022-08-05T06:20:21;14.02;67.40
68912;SHT31;55953;51.650;-0.522;2022-08-05T06:22:49;14.04;67.26
68912;SHT31;55953;51.650;-0.522;2022-08-05T06:25:16;14.07;67.10
68912;SHT31;55953;51.650;-0.522;2022-08-05T06:28:04;14.17;67.01
68912;SHT31;55953;51.650;-0.522;2022-08-05T06:30:46;14.24;66.75
68912;SHT31;55953;51.650;-0.522;2022-08-05T06:33:15;14.30;66.87
68912;SHT31;55953;51.650;-0.522;2022-08-05T06:35:59;14.35;66.65
68912;SHT31;55953;51.650;-0.522;2022-08-05T06:38:34;14.40;66.29
68912;SHT31;55953;51.650;-0.522;2022-08-05T06:41:06;14.45;66.17
68912;SHT31;55953;51.650;-0.522;2022-08-05T06:43:37;14.50;66.13
68912;SHT31;55953;51.650;-0.522;2022-08-05T06:46:25;14.55;66.02
68912;SHT31;55953;51.650;-0.522;2022-08-05T06:48:57;14.58;65.56
68912;SHT31;55953;51.650;-0.522;2022-08-05T06:51:28;14.63;65.51
68912;SHT31;55953;51.650;-0.522;2022-08-05T06:53:58;14.69;65.57
68912;SHT31;55953;51.650;-0.522;2022-08-05T06:56:29;14.77;65.37
68912;SHT31;55953;51.650;-0.522;2022-08-05T06:59:05;14.85;65.02
68912;SHT31;55953;51.650;-0.522;2022-08-05T07:01:36;14.90;64.47
68912;SHT31;55953;51.650;-0.522;2022-08-05T07:04:08;14.94;63.93
68912;SHT31;55953;51.650;-0.522;2022-08-05T07:06:40;14.96;63.79
68912;SHT31;55953;51.650;-0.522;2022-08-05T07:09:08;15.01;63.54
68912;SHT31;55953;51.650;-0.522;2022-08-05T07:11:36;15.06;63.40
68912;SHT31;55953;51.650;-0.522;2022-08-05T07:14:06;15.14;63.02
68912;SHT31;55953;51.650;-0.522;2022-08-05T07:16:57;15.23;62.82
68912;SHT31;55953;51.650;-0.522;2022-08-05T07:19:47;15.27;62.79
68912;SHT31;55953;51.650;-0.522;2022-08-05T07:22:37;15.38;63.12
68912;SHT31;55953;51.650;-0.522;2022-08-05T07:25:08;15.46;62.70
68912;SHT31;55953;51.650;-0.522;2022-08-05T07:27:56;15.49;62.39
68912;SHT31;55953;51.650;-0.522;2022-08-05T07:30:32;15.54;62.39
68912;SHT31;55953;51.650;-0.522;2022-08-05T07:33:09;15.51;62.17
68912;SHT31;55953;51.650;-0.522;2022-08-05T07:35:44;15.48;62.09
68912;SHT31;55953;51.650;-0.522;2022-08-05T07:38:33;15.51;62.46
68912;SHT31;55953;51.650;-0.522;2022-08-05T07:41:15;15.59;62.25
68912;SHT31;55953;51.650;-0.522;2022-08-05T07:44:06;15.69;61.84
68912;SHT31;55953;51.650;-0.522;2022-08-05T07:46:46;15.79;61.92
68912;SHT31;55953;51.650;-0.522;2022-08-05T07:49:16;15.89;61.57
68912;SHT31;55953;51.650;-0.522;2022-08-05T07:51:46;15.93;60.99
68912;SHT31;55953;51.650;-0.522;2022-08-05T07:54:24;15.93;60.78
68912;SHT31;55953;51.650;-0.522;2022-08-05T07:56:58;15.94;60.63
68912;SHT31;55953;51.650;-0.522;2022-08-05T07:59:46;15.94;60.48
68912;SHT31;55953;51.650;-0.522;2022-08-05T08:02:15;15.98;60.41
68912;SHT31;55953;51.650;-0.522;2022-08-05T08:04:45;16.05;59.91
68912;SHT31;55953;51.650;-0.522;2022-08-05T08:07:14;16.17;59.12
68912;SHT31;55953;51.650;-0.522;2022-08-05T08:09:49;16.25;58.57
68912;SHT31;55953;51.650;-0.522;2022-08-05T08:12:21;16.33;57.94
68912;SHT31;55953;51.650;-0.522;2022-08-05T08:15:06;16.39;57.00
68912;SHT31;55953;51.650;-0.522;2022-08-05T08:17:43;16.41;57.20
68912;SHT31;55953;51.650;-0.522;2022-08-05T08:20:20;16.49;57.10
68912;SHT31;55953;51.650;-0.522;2022-08-05T08:23:09;16.56;57.13
68912;SHT31;55953;51.650;-0.522;2022-08-05T08:25:57;16.70;56.79
68912;SHT31;55953;51.650;-0.522;2022-08-05T08:28:31;16.84;56.65
68912;SHT31;55953;51.650;-0.522;2022-08-05T08:31:07;16.91;56.36
68912;SHT31;55953;51.650;-0.522;2022-08-05T08:33:35;17.03;55.54
68912;SHT31;55953;51.650;-0.522;2022-08-05T08:36:07;17.08;54.65
68912;SHT31;55953;51.650;-0.522;2022-08-05T08:38:55;17.17;54.59
68912;SHT31;55953;51.650;-0.522;2022-08-05T08:41:24;17.36;54.16
68912;SHT31;55953;51.650;-0.522;2022-08-05T08:44:17;17.63;53.93
68912;SHT31;55953;51.650;-0.522;2022-08-05T08:47:06;17.89;53.70
68912;SHT31;55953;51.650;-0.522;2022-08-05T08:49:56;17.95;51.80
68912;SHT31;55953;51.650;-0.522;2022-08-05T08:52:47;17.86;52.44
68912;SHT31;55953;51.650;-0.522;2022-08-05T08:55:27;17.87;52.60
68912;SHT31;55953;51.650;-0.522;2022-08-05T08:58:15;18.02;51.72
68912;SHT31;55953;51.650;-0.522;2022-08-05T09:00:43;18.13;51.94
68912;SHT31;55953;51.650;-0.522;2022-08-05T09:03:12;18.30;51.32
68912;SHT31;55953;51.650;-0.522;2022-08-05T09:05:46;18.33;51.15
68912;SHT31;55953;51.650;-0.522;2022-08-05T09:08:34;18.16;50.67
68912;SHT31;55953;51.650;-0.522;2022-08-05T09:11:07;18.10;50.65
68912;SHT31;55953;51.650;-0.522;2022-08-05T09:13:40;18.10;50.01
68912;SHT31;55953;51.650;-0.522;2022-08-05T09:16:29;18.17;49.97
68912;SHT31;55953;51.650;-0.522;2022-08-05T09:18:57;18.26;48.70
68912;SHT31;55953;51.650;-0.522;2022-08-05T09:21:25;18.28;48.03
68912;SHT31;55953;51.650;-0.522;2022-08-05T09:24:14;18.22;48.06
68912;SHT31;55953;51.650;-0.522;2022-08-05T09:26:46;18.24;47.49
68912;SHT31;55953;51.650;-0.522;2022-08-05T09:29:18;18.33;48.65
68912;SHT31;55953;51.650;-0.522;2022-08-05T09:32:03;18.50;48.62
68912;SHT31;55953;51.650;-0.522;2022-08-05T09:34:54;18.55;48.35
68912;SHT31;55953;51.650;-0.522;2022-08-05T09:37:25;18.76;48.35
68912;SHT31;55953;51.650;-0.522;2022-08-05T09:40:32;18.94;48.17
68912;SHT31;55953;51.650;-0.522;2022-08-05T09:43:01;18.97;47.57
68912;SHT31;55953;51.650;-0.522;2022-08-05T09:45:35;18.90;45.36
68912;SHT31;55953;51.650;-0.522;2022-08-05T09:48:30;18.70;46.21
68912;SHT31;55953;51.650;-0.522;2022-08-05T09:51:03;18.52;47.37
68912;SHT31;55953;51.650;-0.522;2022-08-05T09:53:49;18.51;47.28
68912;SHT31;55953;51.650;-0.522;2022-08-05T09:56:31;18.59;46.93
68912;SHT31;55953;51.650;-0.522;2022-08-05T09:59:05;18.70;45.50
68912;SHT31;55953;51.650;-0.522;2022-08-05T10:01:43;18.78;44.68
68912;SHT31;55953;51.650;-0.522;2022-08-05T10:04:13;18.77;44.50
68912;SHT31;55953;51.650;-0.522;2022-08-05T10:06:53;18.83;45.33
68912;SHT31;55953;51.650;-0.522;2022-08-05T10:09:26;18.85;46.96
68912;SHT31;55953;51.650;-0.522;2022-08-05T10:12:08;18.86;47.39
68912;SHT31;55953;51.650;-0.522;2022-08-05T10:20:57;18.97;45.94
68912;SHT31;55953;51.650;-0.522;2022-08-05T10:23:36;19.03;43.69
68912;SHT31;55953;51.650;-0.522;2022-08-05T10:26:24;19.00;43.92
68912;SHT31;55953;51.650;-0.522;2022-08-05T10:29:00;19.07;45.03
68912;SHT31;55953;51.650;-0.522;2022-08-05T10:31:28;19.10;45.33
68912;SHT31;55953;51.650;-0.522;2022-08-05T10:34:18;19.14;45.55
68912;SHT31;55953;51.650;-0.522;2022-08-05T10:36:57;19.19;45.73
68912;SHT31;55953;51.650;-0.522;2022-08-05T10:39:29;19.29;45.85
68912;SHT31;55953;51.650;-0.522;2022-08-05T10:42:23;19.41;44.64
68912;SHT31;55953;51.650;-0.522;2022-08-05T10:45:04;19.45;44.84
68912;SHT31;55953;51.650;-0.522;2022-08-05T10:47:50;19.41;45.60
68912;SHT31;55953;51.650;-0.522;2022-08-05T10:50:57;19.42;46.05
68912;SHT31;55953;51.650;-0.522;2022-08-05T10:54:10;19.48;43.26
68912;SHT31;55953;51.650;-0.522;2022-08-05T10:56:18;19.41;42.19
68912;SHT31;55953;51.650;-0.522;2022-08-05T11:01:37;19.67;42.97
68912;SHT31;55953;51.650;-0.522;2022-08-05T11:04:32;19.84;42.90
68912;SHT31;55953;51.650;-0.522;2022-08-05T11:07:11;19.94;42.07
68912;SHT31;55953;51.650;-0.522;2022-08-05T11:20:31;20.35;42.01
68912;SHT31;55953;51.650;-0.522;2022-08-05T11:26:39;20.67;40.27
68912;SHT31;55953;51.650;-0.522;2022-08-05T11:29:37;20.87;40.16
68912;SHT31;55953;51.650;-0.522;2022-08-05T11:32:26;21.11;39.79
68912;SHT31;55953;51.650;-0.522;2022-08-05T11:34:56;21.17;39.39
68912;SHT31;55953;51.650;-0.522;2022-08-05T11:37:57;21.07;39.40
68912;SHT31;55953;51.650;-0.522;2022-08-05T11:41:03;20.91;39.54
68912;SHT31;55953;51.650;-0.522;2022-08-05T11:44:11;21.06;38.91
68912;SHT31;55953;51.650;-0.522;2022-08-05T11:47:02;20.88;39.34
68912;SHT31;55953;51.650;-0.522;2022-08-05T11:49:42;20.60;40.58
68912;SHT31;55953;51.650;-0.522;2022-08-05T11:52:23;20.43;40.55
68912;SHT31;55953;51.650;-0.522;2022-08-05T11:54:57;20.61;39.56
68912;SHT31;55953;51.650;-0.522;2022-08-05T11:57:34;20.94;39.17
68912;SHT31;55953;51.650;-0.522;2022-08-05T12:00:25;21.31;39.05
68912;SHT31;55953;51.650;-0.522;2022-08-05T12:02:56;21.57;38.99
68912;SHT31;55953;51.650;-0.522;2022-08-05T12:05:25;21.55;39.25
68912;SHT31;55953;51.650;-0.522;2022-08-05T12:08:06;21.25;39.90
68912;SHT31;55953;51.650;-0.522;2022-08-05T12:10:38;20.91;40.07
68912;SHT31;55953;51.650;-0.522;2022-08-05T12:13:13;21.14;40.18
68912;SHT31;55953;51.650;-0.522;2022-08-05T12:16:06;21.48;39.40
68912;SHT31;55953;51.650;-0.522;2022-08-05T12:18:42;21.61;39.14
68912;SHT31;55953;51.650;-0.522;2022-08-05T12:21:23;21.37;38.91
68912;SHT31;55953;51.650;-0.522;2022-08-05T12:24:06;20.97;39.55
68912;SHT31;55953;51.650;-0.522;2022-08-05T12:26:45;20.66;39.77
68912;SHT31;55953;51.650;-0.522;2022-08-05T12:29:20;20.53;39.75
68912;SHT31;55953;51.650;-0.522;2022-08-05T12:31:51;20.86;39.27
68912;SHT31;55953;51.650;-0.522;2022-08-05T12:34:25;21.28;39.37
68912;SHT31;55953;51.650;-0.522;2022-08-05T12:37:01;21.42;38.55
68912;SHT31;55953;51.650;-0.522;2022-08-05T12:39:49;21.35;38.85
68912;SHT31;55953;51.650;-0.522;2022-08-05T12:42:20;21.41;38.28
68912;SHT31;55953;51.650;-0.522;2022-08-05T12:44:59;21.52;38.26
68912;SHT31;55953;51.650;-0.522;2022-08-05T12:47:35;21.78;38.87
68912;SHT31;55953;51.650;-0.522;2022-08-05T12:50:14;22.14;37.17
68912;SHT31;55953;51.650;-0.522;2022-08-05T12:52:55;22.41;36.33
68912;SHT31;55953;51.650;-0.522;2022-08-05T12:55:26;22.68;35.59
68912;SHT31;55953;51.650;-0.522;2022-08-05T12:58:01;22.45;35.71
68912;SHT31;55953;51.650;-0.522;2022-08-05T13:00:49;22.22;36.08
68912;SHT31;55953;51.650;-0.522;2022-08-05T13:03:37;22.40;35.83
68912;SHT31;55953;51.650;-0.522;2022-08-05T13:06:13;22.61;34.81
68912;SHT31;55953;51.650;-0.522;2022-08-05T13:08:44;22.81;35.14
68912;SHT31;55953;51.650;-0.522;2022-08-05T13:11:22;23.09;34.58
68912;SHT31;55953;51.650;-0.522;2022-08-05T13:14:17;22.98;33.99
68912;SHT31;55953;51.650;-0.522;2022-08-05T13:17:06;22.47;34.46
68912;SHT31;55953;51.650;-0.522;2022-08-05T13:19:36;22.14;34.36
68912;SHT31;55953;51.650;-0.522;2022-08-05T13:22:19;22.09;34.77
68912;SHT31;55953;51.650;-0.522;2022-08-05T13:24:57;22.48;35.39
68912;SHT31;55953;51.650;-0.522;2022-08-05T13:27:35;23.07;34.53
68912;SHT31;55953;51.650;-0.522;2022-08-05T13:30:07;23.41;33.41
68912;SHT31;55953;51.650;-0.522;2022-08-05T13:32:58;23.18;33.21
68912;SHT31;55953;51.650;-0.522;2022-08-05T13:35:28;22.74;33.97
68912;SHT31;55953;51.650;-0.522;2022-08-05T13:38:09;22.30;34.71
68912;SHT31;55953;51.650;-0.522;2022-08-05T13:40:54;22.19;35.19
68912;SHT31;55953;51.650;-0.522;2022-08-05T13:43:22;22.41;35.17
68912;SHT31;55953;51.650;-0.522;2022-08-05T13:46:10;22.51;34.33
68912;SHT31;55953;51.650;-0.522;2022-08-05T13:48:38;22.31;34.47
68912;SHT31;55953;51.650;-0.522;2022-08-05T13:51:27;22.20;35.05
68912;SHT31;55953;51.650;-0.522;2022-08-05T13:54:07;22.24;34.87
68912;SHT31;55953;51.650;-0.522;2022-08-05T13:56:39;22.32;34.78
68912;SHT31;55953;51.650;-0.522;2022-08-05T13:59:18;22.65;35.56
68912;SHT31;55953;51.650;-0.522;2022-08-05T14:01:54;22.89;34.37
68912;SHT31;55953;51.650;-0.522;2022-08-05T14:04:27;22.92;33.77
68912;SHT31;55953;51.650;-0.522;2022-08-05T14:07:19;23.09;34.14
68912;SHT31;55953;51.650;-0.522;2022-08-05T14:10:11;23.25;33.83
68912;SHT31;55953;51.650;-0.522;2022-08-05T14:12:54;23.42;33.71
68912;SHT31;55953;51.650;-0.522;2022-08-05T14:15:23;23.19;33.71
68912;SHT31;55953;51.650;-0.522;2022-08-05T14:18:12;23.08;33.53
68912;SHT31;55953;51.650;-0.522;2022-08-05T14:20:45;22.87;33.44
68912;SHT31;55953;51.650;-0.522;2022-08-05T14:23:15;22.58;34.23
68912;SHT31;55953;51.650;-0.522;2022-08-05T14:25:55;22.38;34.94
68912;SHT31;55953;51.650;-0.522;2022-08-05T14:28:26;22.23;34.94
68912;SHT31;55953;51.650;-0.522;2022-08-05T14:30:57;22.20;34.71
68912;SHT31;55953;51.650;-0.522;2022-08-05T14:33:28;22.36;34.90
68912;SHT31;55953;51.650;-0.522;2022-08-05T14:36:17;22.52;34.78
68912;SHT31;55953;51.650;-0.522;2022-08-05T14:38:48;22.53;34.22
68912;SHT31;55953;51.650;-0.522;2022-08-05T14:41:17;22.57;34.32
68912;SHT31;55953;51.650;-0.522;2022-08-05T14:43:45;22.72;34.06
68912;SHT31;55953;51.650;-0.522;2022-08-05T14:46:32;22.92;33.39
68912;SHT31;55953;51.650;-0.522;2022-08-05T14:49:02;23.06;32.25
68912;SHT31;55953;51.650;-0.522;2022-08-05T14:51:35;23.09;32.17
68912;SHT31;55953;51.650;-0.522;2022-08-05T14:54:09;23.24;32.18
68912;SHT31;55953;51.650;-0.522;2022-08-05T14:56:56;23.37;31.85
68912;SHT31;55953;51.650;-0.522;2022-08-05T14:59:26;23.41;31.90
68912;SHT31;55953;51.650;-0.522;2022-08-05T15:02:02;23.52;32.36
68912;SHT31;55953;51.650;-0.522;2022-08-05T15:04:42;23.68;31.88
68912;SHT31;55953;51.650;-0.522;2022-08-05T15:07:16;23.72;31.87
68912;SHT31;55953;51.650;-0.522;2022-08-05T15:10:04;23.87;31.67
68912;SHT31;55953;51.650;-0.522;2022-08-05T15:12:36;23.97;30.88
68912;SHT31;55953;51.650;-0.522;2022-08-05T15:15:25;23.96;31.61
68912;SHT31;55953;51.650;-0.522;2022-08-05T15:18:13;23.93;31.03
68912;SHT31;55953;51.650;-0.522;2022-08-05T15:20:43;23.97;30.88
68912;SHT31;55953;51.650;-0.522;2022-08-05T15:23:12;23.90;31.11
68912;SHT31;55953;51.650;-0.522;2022-08-05T15:25:40;23.84;31.46
68912;SHT31;55953;51.650;-0.522;2022-08-05T15:28:20;23.82;31.56
68912;SHT31;55953;51.650;-0.522;2022-08-05T15:30:54;23.72;30.86
68912;SHT31;55953;51.650;-0.522;2022-08-05T15:33:23;23.40;31.25
68912;SHT31;55953;51.650;-0.522;2022-08-05T15:36:11;23.41;31.41
68912;SHT31;55953;51.650;-0.522;2022-08-05T15:38:51;23.51;31.77
68912;SHT31;55953;51.650;-0.522;2022-08-05T15:41:40;23.47;31.71
68912;SHT31;55953;51.650;-0.522;2022-08-05T15:44:26;23.36;31.79
68912;SHT31;55953;51.650;-0.522;2022-08-05T15:46:56;23.28;31.94
68912;SHT31;55953;51.650;-0.522;2022-08-05T15:49:27;23.20;32.12
68912;SHT31;55953;51.650;-0.522;2022-08-05T15:52:18;23.15;32.57
68912;SHT31;55953;51.650;-0.522;2022-08-05T15:55:07;23.01;32.82
68912;SHT31;55953;51.650;-0.522;2022-08-05T15:57:42;22.84;32.93
68912;SHT31;55953;51.650;-0.522;2022-08-05T16:00:11;22.68;33.43
68912;SHT31;55953;51.650;-0.522;2022-08-05T16:02:43;22.57;33.35
68912;SHT31;55953;51.650;-0.522;2022-08-05T16:05:11;22.50;33.71
68912;SHT31;55953;51.650;-0.522;2022-08-05T16:07:39;22.47;33.96
68912;SHT31;55953;51.650;-0.522;2022-08-05T16:10:15;22.61;34.65
68912;SHT31;55953;51.650;-0.522;2022-08-05T16:12:51;22.82;34.23
68912;SHT31;55953;51.650;-0.522;2022-08-05T16:15:22;22.92;33.93
68912;SHT31;55953;51.650;-0.522;2022-08-05T16:17:58;23.05;33.87
68912;SHT31;55953;51.650;-0.522;2022-08-05T16:20:26;23.17;32.33
68912;SHT31;55953;51.650;-0.522;2022-08-05T16:22:54;23.00;31.74
68912;SHT31;55953;51.650;-0.522;2022-08-05T16:25:23;22.93;32.29
68912;SHT31;55953;51.650;-0.522;2022-08-05T16:28:02;22.85;33.01
68912;SHT31;55953;51.650;-0.522;2022-08-05T16:30:36;22.77;32.92
68912;SHT31;55953;51.650;-0.522;2022-08-05T16:33:05;22.93;33.32
68912;SHT31;55953;51.650;-0.522;2022-08-05T16:35:32;23.09;32.75
68912;SHT31;55953;51.650;-0.522;2022-08-05T16:38:08;23.19;32.35
68912;SHT31;55953;51.650;-0.522;2022-08-05T16:40:53;23.10;32.70
68912;SHT31;55953;51.650;-0.522;2022-08-05T16:43:31;23.04;33.18
68912;SHT31;55953;51.650;-0.522;2022-08-05T16:46:02;23.20;33.16
68912;SHT31;55953;51.650;-0.522;2022-08-05T16:48:50;23.45;32.23
68912;SHT31;55953;51.650;-0.522;2022-08-05T16:51:18;23.62;32.54
68912;SHT31;55953;51.650;-0.522;2022-08-05T16:53:47;23.58;31.84
68912;SHT31;55953;51.650;-0.522;2022-08-05T16:56:36;23.27;31.86
68912;SHT31;55953;51.650;-0.522;2022-08-05T16:59:08;23.02;32.37
68912;SHT31;55953;51.650;-0.522;2022-08-05T17:01:36;23.01;33.33